createdAt,value
2019-04-01T00:02:24.388Z,2.62
2019-04-01T00:04:58.105Z,2.50
2019-04-01T00:07:31.842Z,2.40
2019-04-01T00:10:06.652Z,2.72
2019-04-01T00:12:40.401Z,2.30
2019-04-01T00:15:14.270Z,2.45
2019-04-01T00:17:48.253Z,2.27
2019-04-01T00:20:21.965Z,2.33
2019-04-01T00:22:56.082Z,3.00
2019-04-01T00:25:30.192Z,2.60
2019-04-01T00:28:03.934Z,1.77
2019-04-01T00:30:37.651Z,1.70
2019-04-01T00:33:11.410Z,2.47
2019-04-01T00:35:45.141Z,2.47
2019-04-01T00:38:19.145Z,2.15
2019-04-01T00:40:53.286Z,1.82
2019-04-01T00:43:57.960Z,2.27
2019-04-01T00:46:32.918Z,1.42
2019-04-01T00:49:06.759Z,2.75
2019-04-01T00:51:40.856Z,2.10
2019-04-01T00:54:14.606Z,1.90
2019-04-01T00:56:48.325Z,1.87
2019-04-01T00:59:22.318Z,2.65
2019-04-01T01:01:56.030Z,2.08
2019-04-01T01:04:29.766Z,2.62
2019-04-01T01:07:03.569Z,2.33
2019-04-01T01:09:37.637Z,2.58
2019-04-01T01:12:11.357Z,1.87
2019-04-01T01:14:45.090Z,2.00
2019-04-01T01:17:18.818Z,2.10
2019-04-01T01:19:52.644Z,2.08
2019-04-01T01:22:26.367Z,3.12
2019-04-01T01:25:00.345Z,3.00
2019-04-01T01:27:34.198Z,2.40
2019-04-01T01:30:08.483Z,2.67
2019-04-01T01:32:42.209Z,1.85
2019-04-01T01:35:15.950Z,2.37
2019-04-01T01:37:49.720Z,2.45
2019-04-01T01:40:23.448Z,2.65
2019-04-01T01:42:57.169Z,1.65
2019-04-01T01:45:30.921Z,2.70
2019-04-01T01:48:04.650Z,2.08
2019-04-01T01:50:38.421Z,2.35
2019-04-01T01:53:12.149Z,1.60
2019-04-01T01:55:46.181Z,1.75
2019-04-01T01:58:19.904Z,1.90
2019-04-01T02:00:55.668Z,2.20
2019-04-01T02:03:29.390Z,1.90
2019-04-01T02:06:03.203Z,2.65
2019-04-01T02:08:36.994Z,1.35
2019-04-01T02:11:10.733Z,1.70
2019-04-01T02:13:44.449Z,2.45
2019-04-01T02:16:18.376Z,1.92
2019-04-01T02:18:52.099Z,2.27
2019-04-01T02:21:25.841Z,1.92
2019-04-01T02:23:59.563Z,2.05
2019-04-01T02:26:33.340Z,2.10
2019-04-01T02:29:07.357Z,2.10
2019-04-01T02:31:41.504Z,2.67
2019-04-01T02:34:15.228Z,1.90
2019-04-01T02:36:48.959Z,2.20
2019-04-01T02:39:23.000Z,2.45
2019-04-01T02:41:56.747Z,2.05
2019-04-01T02:44:30.462Z,1.57
2019-04-01T02:47:04.370Z,1.80
2019-04-01T02:49:38.446Z,1.75
2019-04-01T02:52:12.854Z,2.05
2019-04-01T02:54:46.553Z,1.47
2019-04-01T02:57:20.574Z,1.62
2019-04-01T02:59:54.267Z,1.57
2019-04-01T03:02:28.259Z,1.90
2019-04-01T03:05:01.968Z,2.35
2019-04-01T03:07:35.669Z,1.62
2019-04-01T03:10:09.521Z,1.85
2019-04-01T03:12:43.471Z,1.40
2019-04-01T03:15:17.255Z,1.45
2019-04-01T03:17:51.178Z,1.70
2019-04-01T03:20:25.208Z,1.85
2019-04-01T03:22:59.001Z,1.95
2019-04-01T03:25:32.816Z,1.87
2019-04-01T03:28:06.532Z,1.37
2019-04-01T03:30:40.242Z,2.10
2019-04-01T03:33:14.093Z,1.85
2019-04-01T03:35:47.843Z,2.15
2019-04-01T03:38:21.561Z,1.85
2019-04-01T03:40:55.287Z,2.37
2019-04-01T03:43:29.003Z,1.32
2019-04-01T03:46:02.711Z,1.57
2019-04-01T03:48:36.434Z,1.60
2019-04-01T03:51:10.138Z,1.57
2019-04-01T03:53:43.880Z,1.47
2019-04-01T03:56:17.611Z,1.87
2019-04-01T03:58:51.334Z,2.00
2019-04-01T04:01:29.986Z,2.42
2019-04-01T04:04:01.177Z,2.20
2019-04-01T04:06:36.630Z,1.80
2019-04-01T04:09:10.542Z,1.35
2019-04-01T04:11:44.360Z,3.05
2019-04-01T04:14:18.329Z,2.58
2019-04-01T04:16:52.036Z,1.50
2019-04-01T04:19:26.340Z,1.60
2019-04-01T04:22:00.061Z,1.67
2019-04-01T04:24:33.771Z,1.98
2019-04-01T04:27:11.159Z,1.95
2019-04-01T04:29:42.923Z,1.50
2019-04-01T04:32:16.625Z,3.12
2019-04-01T04:34:50.349Z,3.15
2019-04-01T04:37:24.393Z,1.80
2019-04-01T04:39:58.122Z,2.40
2019-04-01T04:42:31.896Z,2.25
2019-04-01T04:45:06.057Z,2.10
2019-04-01T04:47:39.801Z,1.85
2019-04-01T04:50:13.648Z,1.40
2019-04-01T04:52:47.677Z,2.75
2019-04-01T04:55:21.401Z,1.70
2019-04-01T04:57:55.191Z,1.70
2019-04-01T05:00:29.164Z,1.72
2019-04-01T05:03:02.901Z,3.20
2019-04-01T05:05:36.908Z,2.15
2019-04-01T05:08:10.909Z,1.85
2019-04-01T05:10:44.901Z,1.70
2019-04-01T05:13:18.624Z,1.95
2019-04-01T05:15:52.320Z,2.33
2019-04-01T05:18:26.034Z,1.55
2019-04-01T05:21:01.045Z,1.60
2019-04-01T05:23:35.017Z,1.90
2019-04-01T05:26:09.705Z,2.40
2019-04-01T05:28:45.499Z,2.25
2019-04-01T05:31:21.806Z,2.35
2019-04-01T05:33:58.412Z,2.65
2019-04-01T05:36:32.759Z,2.22
2019-04-01T05:39:07.399Z,2.37
2019-04-01T05:41:41.455Z,3.17
2019-04-01T05:44:15.251Z,1.82
2019-04-01T05:46:49.356Z,2.33
2019-04-01T05:49:23.151Z,2.20
2019-04-01T05:51:56.996Z,2.15
2019-04-01T05:54:30.718Z,2.50
2019-04-01T05:57:05.384Z,2.77
2019-04-01T05:59:39.237Z,2.45
2019-04-01T06:02:13.007Z,2.60
2019-04-01T06:04:47.100Z,2.90
2019-04-01T06:07:20.880Z,3.42
2019-04-01T06:09:54.742Z,2.85
2019-04-01T06:12:29.276Z,2.10
2019-04-01T06:15:03.675Z,2.25
2019-04-01T06:17:37.696Z,2.33
2019-04-01T06:20:11.593Z,2.98
2019-04-01T06:22:45.650Z,2.37
2019-04-01T06:25:19.372Z,2.67
2019-04-01T06:27:53.145Z,2.95
2019-04-01T06:30:26.888Z,2.85
2019-04-01T06:33:00.839Z,2.02
2019-04-01T06:35:34.730Z,2.30
2019-04-01T06:38:08.533Z,2.45
2019-04-01T06:40:42.328Z,2.22
2019-04-01T06:43:16.276Z,2.10
2019-04-01T06:45:50.315Z,2.02
2019-04-01T06:48:24.086Z,3.12
2019-04-01T06:50:57.805Z,2.77
2019-04-01T06:53:32.105Z,1.80
2019-04-01T06:56:05.959Z,2.47
2019-04-01T06:58:40.080Z,3.27
2019-04-01T07:01:13.860Z,2.57
2019-04-01T07:03:48.461Z,3.03
2019-04-01T07:06:22.163Z,2.40
2019-04-01T07:08:55.858Z,3.23
2019-04-01T07:11:29.889Z,3.13
2019-04-01T07:14:05.049Z,2.40
2019-04-01T07:16:40.152Z,2.00
2019-04-01T07:19:14.363Z,2.40
2019-04-01T07:21:48.080Z,2.40
2019-04-01T07:24:21.921Z,2.47
2019-04-01T07:26:55.776Z,2.60
2019-04-01T07:29:29.467Z,2.93
2019-04-01T07:32:03.436Z,2.70
2019-04-01T07:34:37.194Z,3.23
2019-04-01T07:37:11.044Z,2.43
2019-04-01T07:39:44.811Z,2.80
2019-04-01T07:42:18.523Z,2.93
2019-04-01T07:44:52.617Z,3.30
2019-04-01T07:47:26.796Z,3.50
2019-04-01T07:50:00.488Z,2.60
2019-04-01T07:52:34.377Z,2.47
2019-04-01T07:55:08.428Z,2.67
2019-04-01T07:57:42.219Z,2.40
2019-04-01T08:00:16.467Z,2.50
2019-04-01T08:02:50.420Z,2.97
2019-04-01T08:05:26.036Z,2.87
2019-04-01T08:07:59.688Z,2.33
2019-04-01T08:10:33.546Z,3.13
2019-04-01T08:13:07.759Z,2.80
2019-04-01T08:15:41.537Z,2.77
2019-04-01T08:18:15.584Z,2.30
2019-04-01T08:20:49.275Z,2.13
2019-04-01T08:23:23.128Z,2.70
2019-04-01T08:25:56.903Z,2.90
2019-04-01T08:28:30.631Z,4.60
2019-04-01T08:31:04.718Z,2.63
2019-04-01T08:33:38.772Z,2.33
2019-04-01T08:36:12.540Z,2.37
2019-04-01T08:38:46.261Z,2.10
2019-04-01T08:41:20.426Z,2.13
2019-04-01T08:43:54.390Z,2.53
2019-04-01T08:46:28.467Z,2.63
2019-04-01T08:49:02.468Z,2.53
2019-04-01T08:51:36.632Z,1.97
2019-04-01T08:54:10.433Z,2.17
2019-04-01T08:56:44.209Z,2.77
2019-04-01T08:59:18.003Z,2.13
2019-04-01T09:01:52.275Z,2.50
2019-04-01T09:04:26.334Z,2.47
2019-04-01T09:07:00.036Z,2.70
2019-04-01T09:09:34.508Z,2.53
2019-04-01T09:12:08.657Z,3.00
2019-04-01T09:14:43.224Z,2.80
2019-04-01T09:17:17.378Z,2.37
2019-04-01T09:19:51.199Z,2.33
2019-04-01T09:22:24.910Z,2.77
2019-04-01T09:24:58.627Z,1.97
2019-04-01T09:27:32.324Z,3.37
2019-04-01T09:30:07.156Z,2.50
2019-04-01T09:32:41.094Z,2.47
2019-04-01T09:35:14.872Z,2.37
2019-04-01T09:37:48.582Z,2.63
2019-04-01T09:40:22.375Z,2.90
2019-04-01T09:42:56.084Z,2.30
2019-04-01T09:45:29.887Z,2.20
2019-04-01T09:48:03.673Z,2.03
2019-04-01T09:50:37.400Z,2.77
2019-04-01T09:53:11.175Z,2.73
2019-04-01T09:55:45.264Z,2.20
2019-04-01T09:58:18.973Z,2.00
2019-04-01T10:00:53.404Z,2.90
2019-04-01T10:03:27.623Z,2.80
2019-04-01T10:06:01.333Z,2.10
2019-04-01T10:08:42.117Z,2.83
2019-04-01T10:11:12.630Z,2.70
2019-04-01T10:13:45.917Z,2.03
2019-04-01T10:16:19.649Z,3.10
2019-04-01T10:18:53.353Z,2.37
2019-04-01T10:21:27.372Z,2.27
2019-04-01T10:24:01.091Z,2.50
2019-04-01T10:26:34.981Z,1.77
2019-04-01T10:29:08.684Z,2.40
2019-04-01T10:31:42.481Z,2.30
2019-04-01T10:34:16.187Z,2.17
2019-04-01T10:36:50.058Z,2.17
2019-04-01T10:39:23.772Z,2.53
2019-04-01T10:41:57.821Z,2.77
2019-04-01T10:44:31.523Z,1.87
2019-04-01T10:47:05.765Z,2.57
2019-04-01T10:49:39.480Z,2.40
2019-04-01T10:52:13.294Z,2.07
2019-04-01T10:54:47.177Z,2.60
2019-04-01T10:57:20.904Z,2.43
2019-04-01T10:59:54.865Z,2.00
2019-04-01T11:02:28.755Z,2.20
2019-04-01T11:05:01.480Z,3.80
2019-04-01T11:07:35.539Z,1.90
2019-04-01T11:10:11.790Z,2.10
2019-04-01T11:12:45.149Z,2.50
2019-04-01T11:15:20.385Z,2.00
2019-04-01T11:17:54.552Z,2.70
2019-04-01T11:20:28.257Z,2.00
2019-04-01T11:23:02.798Z,2.40
2019-04-01T11:25:37.123Z,2.27
2019-04-01T11:28:10.849Z,2.47
2019-04-01T11:30:44.829Z,2.60
2019-04-01T11:33:18.903Z,2.43
2019-04-01T11:35:52.593Z,1.77
2019-04-01T11:38:26.281Z,2.17
2019-04-01T11:41:00.045Z,2.30
2019-04-01T11:43:35.668Z,2.93
2019-04-01T11:46:12.580Z,2.30
2019-04-01T11:48:45.684Z,2.17
2019-04-01T11:51:31.992Z,1.90
2019-04-01T11:53:55.232Z,1.53
2019-04-01T11:56:29.006Z,2.07
2019-04-01T11:59:02.802Z,2.40
2019-04-01T12:01:36.932Z,2.17
2019-04-01T12:04:10.970Z,2.00
2019-04-01T12:06:44.693Z,3.50
2019-04-01T12:09:18.405Z,2.97
2019-04-01T12:11:52.119Z,2.03
2019-04-01T12:14:25.891Z,2.30
2019-04-01T12:16:59.608Z,1.93
2019-04-01T12:19:33.396Z,2.20
2019-04-01T12:22:07.178Z,2.23
2019-04-01T12:24:41.290Z,2.30
2019-04-01T12:27:15.536Z,2.30
2019-04-01T12:29:51.395Z,2.73
2019-04-01T12:32:25.182Z,2.20
2019-04-01T12:34:58.917Z,2.87
2019-04-01T12:37:32.620Z,1.90
2019-04-01T12:40:06.922Z,2.03
2019-04-01T12:42:40.914Z,2.40
2019-04-01T12:45:14.780Z,2.27
2019-04-01T12:47:48.552Z,2.50
2019-04-01T12:50:22.476Z,2.20
2019-04-01T12:52:56.248Z,2.40
2019-04-01T12:55:30.096Z,2.13
2019-04-01T12:58:03.888Z,2.00
2019-04-01T13:00:37.712Z,2.20
2019-04-01T13:03:11.946Z,2.50
2019-04-01T13:05:45.795Z,2.30
2019-04-01T13:08:19.873Z,2.10
2019-04-01T13:10:56.483Z,2.80
2019-04-01T13:13:29.309Z,3.10
2019-04-01T13:16:03.539Z,2.50
2019-04-01T13:18:38.305Z,3.07
2019-04-01T13:21:12.243Z,2.33
2019-04-01T13:23:46.008Z,1.87
2019-04-01T13:26:19.981Z,2.00
2019-04-01T13:28:55.016Z,4.23
2019-04-01T13:31:29.015Z,2.00
2019-04-01T13:34:02.778Z,2.73
2019-04-01T13:36:36.856Z,2.53
2019-04-01T13:39:10.805Z,3.20
2019-04-01T13:41:45.500Z,2.63
2019-04-01T13:44:19.544Z,1.80
2019-04-01T13:46:55.949Z,2.63
2019-04-01T13:49:29.258Z,2.67
2019-04-01T13:52:03.746Z,2.23
2019-04-01T13:54:37.695Z,3.60
2019-04-01T13:57:13.071Z,2.50
2019-04-01T13:59:49.417Z,2.00
2019-04-01T14:02:22.891Z,2.47
2019-04-01T14:04:56.990Z,2.80
2019-04-01T14:07:30.677Z,3.20
2019-04-01T14:10:05.212Z,3.40
2019-04-01T14:12:39.272Z,2.30
2019-04-01T14:15:13.318Z,2.50
2019-04-01T14:17:47.036Z,2.47
2019-04-01T14:20:20.724Z,2.60
2019-04-01T14:22:54.452Z,2.37
2019-04-01T14:25:28.148Z,2.30
2019-04-01T14:28:02.425Z,2.50
2019-04-01T14:30:36.667Z,3.00
2019-04-01T14:33:10.387Z,2.70
2019-04-01T14:35:45.303Z,3.53
2019-04-01T14:38:19.047Z,2.80
2019-04-01T14:40:52.753Z,2.90
2019-04-01T14:43:26.622Z,3.27
2019-04-01T14:46:00.626Z,2.87
2019-04-01T14:48:34.598Z,2.60
2019-04-01T14:51:08.444Z,2.50
2019-04-01T14:53:42.222Z,3.17
2019-04-01T14:56:16.030Z,2.50
2019-04-01T14:58:50.115Z,2.40
2019-04-01T15:01:23.992Z,2.80
2019-04-01T15:03:57.896Z,2.83
2019-04-01T15:06:31.773Z,3.13
2019-04-01T15:09:08.573Z,2.77
2019-04-01T15:11:42.843Z,2.70
2019-04-01T15:14:16.678Z,3.60
2019-04-01T15:16:50.456Z,2.50
2019-04-01T15:19:24.263Z,3.00
2019-04-01T15:21:58.385Z,3.60
2019-04-01T15:24:32.151Z,3.37
2019-04-01T15:27:05.988Z,3.80
2019-04-01T15:29:39.867Z,2.80
2019-04-01T15:32:13.735Z,3.13
2019-04-01T15:34:47.539Z,3.17
2019-04-01T15:37:21.307Z,2.70
2019-04-01T15:39:55.112Z,3.10
2019-04-01T15:42:28.935Z,3.20
2019-04-01T15:45:02.829Z,3.23
2019-04-01T15:47:38.299Z,3.33
2019-04-01T15:50:27.375Z,2.63
2019-04-01T15:52:47.948Z,3.10
2019-04-01T15:55:21.701Z,3.00
2019-04-01T15:57:55.503Z,2.97
2019-04-01T16:00:29.290Z,2.90
2019-04-01T16:03:03.106Z,3.00
2019-04-01T16:05:36.862Z,3.73
2019-04-01T16:08:10.763Z,2.90
2019-04-01T16:10:44.657Z,3.53
2019-04-01T16:13:18.542Z,3.20
2019-04-01T16:15:52.321Z,3.60
2019-04-01T16:18:26.058Z,3.70
2019-04-01T16:21:00.011Z,4.03
2019-04-01T16:23:33.993Z,3.60
2019-04-01T16:26:09.520Z,4.20
2019-04-01T16:28:43.457Z,3.40
2019-04-01T16:31:17.255Z,11.20
2019-04-01T16:33:51.407Z,3.67
2019-04-01T16:36:25.134Z,2.83
2019-04-01T16:38:59.420Z,3.50
2019-04-01T16:41:33.225Z,2.70
2019-04-01T16:44:07.209Z,3.40
2019-04-01T16:46:41.533Z,3.93
2019-04-01T16:49:15.740Z,4.20
2019-04-01T16:51:50.477Z,3.20
2019-04-01T16:54:24.294Z,3.57
2019-04-01T16:56:58.067Z,3.80
2019-04-01T16:59:31.906Z,3.17
2019-04-01T17:02:17.236Z,4.13
2019-04-01T17:04:41.521Z,3.37
2019-04-01T17:07:15.447Z,3.00
2019-04-01T17:09:49.443Z,3.40
2019-04-01T17:12:23.363Z,3.63
2019-04-01T17:14:57.383Z,3.80
2019-04-01T17:17:31.261Z,4.33
2019-04-01T17:20:05.493Z,3.83
2019-04-01T17:22:39.384Z,3.60
2019-04-01T17:25:13.375Z,3.57
2019-04-01T17:27:47.318Z,3.97
2019-04-01T17:30:21.571Z,4.40
2019-04-01T17:32:55.427Z,4.50
2019-04-01T17:35:29.377Z,4.27
2019-04-01T17:38:03.663Z,4.13
2019-04-01T17:40:37.410Z,4.03
2019-04-01T17:43:13.488Z,4.00
2019-04-01T17:45:46.918Z,3.50
2019-04-01T17:48:20.674Z,4.40
2019-04-01T17:50:54.453Z,3.73
2019-04-01T17:53:28.236Z,5.73
2019-04-01T17:56:02.147Z,5.17
2019-04-01T17:58:36.035Z,3.63
2019-04-01T18:01:10.537Z,3.90
2019-04-01T18:03:45.058Z,4.00
2019-04-01T18:06:18.911Z,6.30
2019-04-01T18:08:52.725Z,5.70
2019-04-01T18:11:26.461Z,5.20
2019-04-01T18:14:02.757Z,4.60
2019-04-01T18:16:35.755Z,4.33
2019-04-01T18:19:09.905Z,3.93
2019-04-01T18:21:43.677Z,4.10
2019-04-01T18:24:17.427Z,3.60
2019-04-01T18:26:51.198Z,4.63
2019-04-01T18:29:24.980Z,3.90
2019-04-01T18:31:59.106Z,4.70
2019-04-01T18:34:32.980Z,4.30
2019-04-01T18:37:06.688Z,4.60
2019-04-01T18:39:47.975Z,3.53
2019-04-01T18:42:15.790Z,4.77
2019-04-01T18:44:49.841Z,4.00
2019-04-01T18:47:23.567Z,4.03
2019-04-01T18:49:57.285Z,4.70
2019-04-01T18:52:30.991Z,5.80
2019-04-01T18:55:07.660Z,4.10
2019-04-01T18:57:40.519Z,4.80
2019-04-01T19:00:14.887Z,4.43
2019-04-01T19:02:48.775Z,3.93
2019-04-01T19:05:22.868Z,5.43
2019-04-01T19:07:56.571Z,4.93
2019-04-01T19:10:30.293Z,3.80
2019-04-01T19:13:06.602Z,4.03
2019-04-01T19:15:41.997Z,4.40
2019-04-01T19:18:15.790Z,4.13
2019-04-01T19:20:56.119Z,3.73
2019-04-01T19:23:24.972Z,5.00
2019-04-01T19:25:58.683Z,5.20
2019-04-01T19:28:32.393Z,4.07
2019-04-01T19:31:06.190Z,3.93
2019-04-01T19:33:39.962Z,4.60
2019-04-01T19:36:13.956Z,5.60
2019-04-01T19:38:47.657Z,5.20
2019-04-01T19:41:21.359Z,4.80
2019-04-01T19:43:55.061Z,5.77
2019-04-01T19:46:28.767Z,4.20
2019-04-01T19:49:05.032Z,4.30
2019-04-01T19:51:38.232Z,4.10
2019-04-01T19:54:11.923Z,4.20
2019-04-01T19:56:45.937Z,4.40
2019-04-01T19:59:19.630Z,4.60
2019-04-01T20:01:53.366Z,5.07
2019-04-01T20:04:27.385Z,4.23
2019-04-01T20:07:01.081Z,4.30
2019-04-01T20:09:34.850Z,4.27
2019-04-01T20:12:08.639Z,4.67
2019-04-01T20:14:42.337Z,4.63
2019-04-01T20:17:16.135Z,3.90
2019-04-01T20:19:50.002Z,4.90
2019-04-01T20:22:24.002Z,5.07
2019-04-01T20:24:57.697Z,4.60
2019-04-01T20:27:31.711Z,3.40
2019-04-01T20:30:09.096Z,3.97
2019-04-01T20:32:42.900Z,4.10
2019-04-01T20:35:23.373Z,5.07
2019-04-01T20:37:52.228Z,4.97
2019-04-01T20:40:25.927Z,4.20
2019-04-01T20:42:59.639Z,5.07
2019-04-01T20:45:33.412Z,4.80
2019-04-01T20:48:07.118Z,4.87
2019-04-01T20:50:40.811Z,4.97
2019-04-01T20:53:14.536Z,6.00
2019-04-01T20:55:50.452Z,5.47
2019-04-01T20:58:23.743Z,4.67
2019-04-01T21:00:57.444Z,4.80
2019-04-01T21:03:31.156Z,4.53
2019-04-01T21:06:05.187Z,5.10
2019-04-01T21:08:38.907Z,4.57
2019-04-01T21:11:12.875Z,4.50
2019-04-01T21:13:46.903Z,4.13
2019-04-01T21:16:20.609Z,4.63
2019-04-01T21:18:54.319Z,4.20
2019-04-01T21:21:28.040Z,4.53
2019-04-01T21:24:01.765Z,4.20
2019-04-01T21:26:35.532Z,4.80
2019-04-01T21:29:09.234Z,4.60
2019-04-01T21:31:43.288Z,4.70
2019-04-01T21:34:17.011Z,4.43
2019-04-01T21:36:50.722Z,4.90
2019-04-01T21:39:24.444Z,4.70
2019-04-01T21:41:58.145Z,4.57
2019-04-01T21:44:31.850Z,4.60
2019-04-01T21:47:05.689Z,4.17
2019-04-01T21:49:39.408Z,4.60
2019-04-01T21:52:13.119Z,5.20
2019-04-01T21:54:46.833Z,5.30
2019-04-01T21:57:20.712Z,5.23
2019-04-01T21:59:55.485Z,5.37
2019-04-01T22:02:35.863Z,4.50
2019-04-01T22:05:05.415Z,4.93
2019-04-01T22:07:39.125Z,4.87
2019-04-01T22:10:13.180Z,5.00
2019-04-01T22:12:46.889Z,4.17
2019-04-01T22:15:21.138Z,4.90
2019-04-01T22:17:56.875Z,4.87
2019-04-01T22:20:30.837Z,4.53
2019-04-01T22:23:05.227Z,4.10
2019-04-01T22:25:39.919Z,4.10
2019-04-01T22:28:13.613Z,4.17
2019-04-01T22:30:47.326Z,4.90
2019-04-01T22:33:21.021Z,4.47
2019-04-01T22:35:54.812Z,4.50
2019-04-01T22:38:28.497Z,4.70
2019-04-01T22:41:02.208Z,3.60
2019-04-01T22:43:35.909Z,4.67
2019-04-01T22:46:09.620Z,5.27
2019-04-01T22:48:43.606Z,4.00
2019-04-01T22:51:17.379Z,4.87
2019-04-01T22:53:51.071Z,4.30
2019-04-01T22:56:24.791Z,4.37
2019-04-01T22:58:58.488Z,4.60
2019-04-01T23:01:32.238Z,3.97
2019-04-01T23:04:05.939Z,3.70
2019-04-01T23:06:39.962Z,4.53
2019-04-01T23:09:13.659Z,3.93
2019-04-01T23:11:47.376Z,3.90
2019-04-01T23:14:21.073Z,3.63
2019-04-01T23:16:54.786Z,3.90
2019-04-01T23:19:28.506Z,4.00
2019-04-01T23:22:02.220Z,4.13
2019-04-01T23:24:36.135Z,3.90
2019-04-01T23:27:09.848Z,4.27
2019-04-01T23:29:43.529Z,4.60
2019-04-01T23:32:17.241Z,4.97
2019-04-01T23:34:51.211Z,4.03
2019-04-01T23:37:24.919Z,4.47
2019-04-01T23:39:58.688Z,4.60
2019-04-01T23:42:32.401Z,4.00
2019-04-01T23:45:07.003Z,5.03
2019-04-01T23:47:40.784Z,4.53
2019-04-01T23:50:14.552Z,4.67
2019-04-01T23:52:48.269Z,3.63
2019-04-01T23:55:22.443Z,5.20
2019-04-01T23:57:56.152Z,5.03
